sensor_id;sensor_type;location;lat;lon;timestamp;temperature;humidity
40538;DHT22;27925;41.874;12.526;2024-01-10T00:01:51;10.10;80.90
40538;DHT22;27925;41.874;12.526;2024-01-10T00:04:17;10.00;80.80
40538;DHT22;27925;41.874;12.526;2024-01-10T00:06:43;10.00;80.80
40538;DHT22;27925;41.874;12.526;2024-01-10T00:09:09;10.00;80.90
40538;DHT22;27925;41.874;12.526;2024-01-10T00:11:34;9.90;81.80
40538;DHT22;27925;41.874;12.526;2024-01-10T00:14:00;9.90;81.80
40538;DHT22;27925;41.874;12.526;2024-01-10T00:16:28;9.90;82.00
40538;DHT22;27925;41.874;12.526;2024-01-10T00:18:54;9.90;82.00
40538;DHT22;27925;41.874;12.526;2024-01-10T00:21:20;9.90;82.10
40538;DHT22;27925;41.874;12.526;2024-01-10T00:23:45;9.80;81.80
40538;DHT22;27925;41.874;12.526;2024-01-10T00:26:11;9.80;82.10
40538;DHT22;27925;41.874;12.526;2024-01-10T00:28:37;9.80;82.60
40538;DHT22;27925;41.874;12.526;2024-01-10T00:31:02;9.80;82.70
40538;DHT22;27925;41.874;12.526;2024-01-10T00:33:28;9.80;83.10
40538;DHT22;27925;41.874;12.526;2024-01-10T00:35:54;9.80;82.90
40538;DHT22;27925;41.874;12.526;2024-01-10T00:38:19;9.80;83.00
40538;DHT22;27925;41.874;12.526;2024-01-10T00:40:45;9.80;83.60
40538;DHT22;27925;41.874;12.526;2024-01-10T00:43:11;9.70;83.40
40538;DHT22;27925;41.874;12.526;2024-01-10T00:45:36;9.80;83.60
40538;DHT22;27925;41.874;12.526;2024-01-10T00:48:02;9.70;83.60
40538;DHT22;27925;41.874;12.526;2024-01-10T00:50:28;9.60;83.70
40538;DHT22;27925;41.874;12.526;2024-01-10T00:52:54;9.60;83.90
40538;DHT22;27925;41.874;12.526;2024-01-10T00:55:19;9.50;84.00
40538;DHT22;27925;41.874;12.526;2024-01-10T00:57:45;9.50;83.80
40538;DHT22;27925;41.874;12.526;2024-01-10T01:00:11;9.50;84.00
40538;DHT22;27925;41.874;12.526;2024-01-10T01:02:38;9.50;84.30
40538;DHT22;27925;41.874;12.526;2024-01-10T01:05:07;9.50;84.00
40538;DHT22;27925;41.874;12.526;2024-01-10T01:07:33;9.40;83.90
40538;DHT22;27925;41.874;12.526;2024-01-10T01:09:59;9.50;83.90
40538;DHT22;27925;41.874;12.526;2024-01-10T01:12:25;9.50;83.80
40538;DHT22;27925;41.874;12.526;2024-01-10T01:14:51;9.50;84.10
40538;DHT22;27925;41.874;12.526;2024-01-10T01:17:17;9.50;83.80
40538;DHT22;27925;41.874;12.526;2024-01-10T01:19:42;9.50;83.70
40538;DHT22;27925;41.874;12.526;2024-01-10T01:22:08;9.50;83.80
40538;DHT22;27925;41.874;12.526;2024-01-10T01:24:34;9.40;84.00
40538;DHT22;27925;41.874;12.526;2024-01-10T01:26:59;9.30;84.00
40538;DHT22;27925;41.874;12.526;2024-01-10T01:29:25;9.30;84.10
40538;DHT22;27925;41.874;12.526;2024-01-10T01:31:51;9.30;84.10
40538;DHT22;27925;41.874;12.526;2024-01-10T01:34:18;9.30;84.30
40538;DHT22;27925;41.874;12.526;2024-01-10T01:36:43;9.30;84.10
40538;DHT22;27925;41.874;12.526;2024-01-10T01:39:09;9.30;84.10
40538;DHT22;27925;41.874;12.526;2024-01-10T01:41:35;9.30;84.20
40538;DHT22;27925;41.874;12.526;2024-01-10T01:44:00;9.30;84.20
40538;DHT22;27925;41.874;12.526;2024-01-10T01:46:27;9.30;84.00
40538;DHT22;27925;41.874;12.526;2024-01-10T01:48:53;9.40;84.00
40538;DHT22;27925;41.874;12.526;2024-01-10T01:51:20;9.30;83.80
40538;DHT22;27925;41.874;12.526;2024-01-10T01:53:48;9.30;84.10
40538;DHT22;27925;41.874;12.526;2024-01-10T01:56:15;9.20;84.10
40538;DHT22;27925;41.874;12.526;2024-01-10T01:58:43;9.20;84.30
40538;DHT22;27925;41.874;12.526;2024-01-10T02:01:09;9.10;84.30
40538;DHT22;27925;41.874;12.526;2024-01-10T02:03:37;9.20;84.60
40538;DHT22;27925;41.874;12.526;2024-01-10T02:06:03;9.20;84.60
40538;DHT22;27925;41.874;12.526;2024-01-10T02:08:35;9.10;84.50
40538;DHT22;27925;41.874;12.526;2024-01-10T02:11:02;9.10;84.40
40538;DHT22;27925;41.874;12.526;2024-01-10T02:13:28;9.00;84.00
40538;DHT22;27925;41.874;12.526;2024-01-10T02:15:54;8.90;84.30
40538;DHT22;27925;41.874;12.526;2024-01-10T02:18:20;8.90;84.10
40538;DHT22;27925;41.874;12.526;2024-01-10T02:20:46;8.90;84.60
40538;DHT22;27925;41.874;12.526;2024-01-10T02:23:12;8.90;84.50
40538;DHT22;27925;41.874;12.526;2024-01-10T02:25:40;8.80;84.60
40538;DHT22;27925;41.874;12.526;2024-01-10T02:28:06;8.90;84.90
40538;DHT22;27925;41.874;12.526;2024-01-10T02:30:32;8.90;84.70
40538;DHT22;27925;41.874;12.526;2024-01-10T02:32:58;8.80;84.70
40538;DHT22;27925;41.874;12.526;2024-01-10T02:35:23;8.80;84.90
40538;DHT22;27925;41.874;12.526;2024-01-10T02:37:49;8.80;85.40
40538;DHT22;27925;41.874;12.526;2024-01-10T02:40:17;8.80;85.40
40538;DHT22;27925;41.874;12.526;2024-01-10T02:42:43;8.80;85.60
40538;DHT22;27925;41.874;12.526;2024-01-10T02:45:09;8.80;85.60
40538;DHT22;27925;41.874;12.526;2024-01-10T02:47:35;8.80;85.80
40538;DHT22;27925;41.874;12.526;2024-01-10T02:50:03;8.90;85.40
40538;DHT22;27925;41.874;12.526;2024-01-10T02:52:29;8.80;85.70
40538;DHT22;27925;41.874;12.526;2024-01-10T02:54:54;8.90;85.70
40538;DHT22;27925;41.874;12.526;2024-01-10T02:57:20;8.90;85.70
40538;DHT22;27925;41.874;12.526;2024-01-10T02:59:46;8.90;85.20
40538;DHT22;27925;41.874;12.526;2024-01-10T03:02:11;9.00;85.40
40538;DHT22;27925;41.874;12.526;2024-01-10T03:04:37;9.00;85.40
40538;DHT22;27925;41.874;12.526;2024-01-10T03:07:03;9.20;85.10
40538;DHT22;27925;41.874;12.526;2024-01-10T03:09:29;9.20;84.90
40538;DHT22;27925;41.874;12.526;2024-01-10T03:11:54;9.20;84.80
40538;DHT22;27925;41.874;12.526;2024-01-10T03:14:20;9.20;84.70
40538;DHT22;27925;41.874;12.526;2024-01-10T03:16:47;9.20;85.00
40538;DHT22;27925;41.874;12.526;2024-01-10T03:19:13;9.20;84.90
40538;DHT22;27925;41.874;12.526;2024-01-10T03:21:39;9.10;84.70
40538;DHT22;27925;41.874;12.526;2024-01-10T03:24:05;9.20;85.10
40538;DHT22;27925;41.874;12.526;2024-01-10T03:26:31;9.10;84.70
40538;DHT22;27925;41.874;12.526;2024-01-10T03:28:57;9.10;84.80
40538;DHT22;27925;41.874;12.526;2024-01-10T03:31:23;9.10;84.90
40538;DHT22;27925;41.874;12.526;2024-01-10T03:33:48;9.20;84.90
40538;DHT22;27925;41.874;12.526;2024-01-10T03:36:17;9.30;84.80
40538;DHT22;27925;41.874;12.526;2024-01-10T03:38:44;9.30;84.90
40538;DHT22;27925;41.874;12.526;2024-01-10T03:41:17;9.30;84.60
40538;DHT22;27925;41.874;12.526;2024-01-10T03:43:44;9.30;84.40
40538;DHT22;27925;41.874;12.526;2024-01-10T03:46:10;9.30;84.50
40538;DHT22;27925;41.874;12.526;2024-01-10T03:48:36;9.30;84.80
40538;DHT22;27925;41.874;12.526;2024-01-10T03:51:02;9.30;84.50
40538;DHT22;27925;41.874;12.526;2024-01-10T03:53:28;9.30;84.40
40538;DHT22;27925;41.874;12.526;2024-01-10T03:55:54;9.30;84.60
40538;DHT22;27925;41.874;12.526;2024-01-10T03:58:20;9.30;84.40
40538;DHT22;27925;41.874;12.526;2024-01-10T04:00:46;9.40;84.50
40538;DHT22;27925;41.874;12.526;2024-01-10T04:03:12;9.40;84.30
40538;DHT22;27925;41.874;12.526;2024-01-10T04:05:37;9.30;84.40
40538;DHT22;27925;41.874;12.526;2024-01-10T04:08:03;9.30;84.40
40538;DHT22;27925;41.874;12.526;2024-01-10T04:10:29;9.20;84.50
40538;DHT22;27925;41.874;12.526;2024-01-10T04:12:55;9.20;84.30
40538;DHT22;27925;41.874;12.526;2024-01-10T04:15:21;9.20;84.20
40538;DHT22;27925;41.874;12.526;2024-01-10T04:17:46;9.10;84.60
40538;DHT22;27925;41.874;12.526;2024-01-10T04:20:13;9.10;84.70
40538;DHT22;27925;41.874;12.526;2024-01-10T04:22:38;9.10;84.60
40538;DHT22;27925;41.874;12.526;2024-01-10T04:25:06;9.20;84.70
40538;DHT22;27925;41.874;12.526;2024-01-10T04:27:33;9.20;84.90
40538;DHT22;27925;41.874;12.526;2024-01-10T04:29:58;9.20;84.50
40538;DHT22;27925;41.874;12.526;2024-01-10T04:32:24;9.20;84.60
40538;DHT22;27925;41.874;12.526;2024-01-10T04:34:50;9.20;84.70
40538;DHT22;27925;41.874;12.526;2024-01-10T04:37:16;9.20;85.00
40538;DHT22;27925;41.874;12.526;2024-01-10T04:39:42;9.20;85.30
40538;DHT22;27925;41.874;12.526;2024-01-10T04:42:11;9.20;85.30
40538;DHT22;27925;41.874;12.526;2024-01-10T04:44:37;9.20;85.10
40538;DHT22;27925;41.874;12.526;2024-01-10T04:47:03;9.20;85.30
40538;DHT22;27925;41.874;12.526;2024-01-10T04:49:29;9.20;85.30
40538;DHT22;27925;41.874;12.526;2024-01-10T04:51:54;9.20;85.40
40538;DHT22;27925;41.874;12.526;2024-01-10T04:54:20;9.20;85.40
40538;DHT22;27925;41.874;12.526;2024-01-10T04:56:46;9.20;85.30
40538;DHT22;27925;41.874;12.526;2024-01-10T04:59:12;9.20;85.70
40538;DHT22;27925;41.874;12.526;2024-01-10T05:01:37;9.20;85.70
40538;DHT22;27925;41.874;12.526;2024-01-10T05:04:03;9.10;85.70
40538;DHT22;27925;41.874;12.526;2024-01-10T05:06:29;9.10;85.80
40538;DHT22;27925;41.874;12.526;2024-01-10T05:08:55;9.20;85.80
40538;DHT22;27925;41.874;12.526;2024-01-10T05:11:24;9.20;85.90
40538;DHT22;27925;41.874;12.526;2024-01-10T05:13:51;9.20;85.80
40538;DHT22;27925;41.874;12.526;2024-01-10T05:16:17;9.20;86.10
40538;DHT22;27925;41.874;12.526;2024-01-10T05:18:43;9.20;86.00
40538;DHT22;27925;41.874;12.526;2024-01-10T05:21:09;9.20;86.10
40538;DHT22;27925;41.874;12.526;2024-01-10T05:23:34;9.20;86.10
40538;DHT22;27925;41.874;12.526;2024-01-10T05:26:01;9.20;86.10
40538;DHT22;27925;41.874;12.526;2024-01-10T05:28:26;9.30;86.10
40538;DHT22;27925;41.874;12.526;2024-01-10T05:30:52;9.30;86.10
40538;DHT22;27925;41.874;12.526;2024-01-10T05:33:19;9.30;85.90
40538;DHT22;27925;41.874;12.526;2024-01-10T05:35:45;9.20;86.00
40538;DHT22;27925;41.874;12.526;2024-01-10T05:38:11;9.20;86.10
40538;DHT22;27925;41.874;12.526;2024-01-10T05:40:37;9.20;86.10
40538;DHT22;27925;41.874;12.526;2024-01-10T05:43:03;9.20;86.30
40538;DHT22;27925;41.874;12.526;2024-01-10T05:45:28;9.10;86.40
40538;DHT22;27925;41.874;12.526;2024-01-10T05:47:54;9.10;86.20
40538;DHT22;27925;41.874;12.526;2024-01-10T05:50:21;9.10;86.50
40538;DHT22;27925;41.874;12.526;2024-01-10T05:52:47;9.10;86.50
40538;DHT22;27925;41.874;12.526;2024-01-10T05:55:13;9.10;86.40
40538;DHT22;27925;41.874;12.526;2024-01-10T05:57:39;9.00;86.30
40538;DHT22;27925;41.874;12.526;2024-01-10T06:00:06;9.10;86.70
40538;DHT22;27925;41.874;12.526;2024-01-10T06:02:41;9.10;86.60
40538;DHT22;27925;41.874;12.526;2024-01-10T06:05:10;9.10;86.30
40538;DHT22;27925;41.874;12.526;2024-01-10T06:07:37;9.10;86.80
40538;DHT22;27925;41.874;12.526;2024-01-10T06:10:03;9.10;86.30
40538;DHT22;27925;41.874;12.526;2024-01-10T06:12:29;9.20;86.70
40538;DHT22;27925;41.874;12.526;2024-01-10T06:14:55;9.20;86.50
40538;DHT22;27925;41.874;12.526;2024-01-10T06:17:21;9.10;86.30
40538;DHT22;27925;41.874;12.526;2024-01-10T06:19:47;9.20;86.30
40538;DHT22;27925;41.874;12.526;2024-01-10T06:22:13;9.20;86.50
40538;DHT22;27925;41.874;12.526;2024-01-10T06:24:39;9.20;86.30
40538;DHT22;27925;41.874;12.526;2024-01-10T06:27:06;9.20;86.80
40538;DHT22;27925;41.874;12.526;2024-01-10T06:29:32;9.20;86.80
40538;DHT22;27925;41.874;12.526;2024-01-10T06:31:59;9.20;86.80
40538;DHT22;27925;41.874;12.526;2024-01-10T06:34:27;9.20;86.60
40538;DHT22;27925;41.874;12.526;2024-01-10T06:36:53;9.20;86.70
40538;DHT22;27925;41.874;12.526;2024-01-10T06:39:18;9.20;86.60
40538;DHT22;27925;41.874;12.526;2024-01-10T06:41:47;9.20;87.00
40538;DHT22;27925;41.874;12.526;2024-01-10T06:44:13;9.20;86.80
40538;DHT22;27925;41.874;12.526;2024-01-10T06:46:38;9.20;86.90
40538;DHT22;27925;41.874;12.526;2024-01-10T06:49:04;9.30;87.00
40538;DHT22;27925;41.874;12.526;2024-01-10T06:51:31;9.30;86.70
40538;DHT22;27925;41.874;12.526;2024-01-10T06:53:57;9.20;87.20
40538;DHT22;27925;41.874;12.526;2024-01-10T06:56:29;9.20;87.20
40538;DHT22;27925;41.874;12.526;2024-01-10T06:58:55;9.20;87.20
40538;DHT22;27925;41.874;12.526;2024-01-10T07:01:21;9.30;87.50
40538;DHT22;27925;41.874;12.526;2024-01-10T07:03:47;9.30;87.70
40538;DHT22;27925;41.874;12.526;2024-01-10T07:06:13;9.30;87.40
40538;DHT22;27925;41.874;12.526;2024-01-10T07:08:41;9.30;87.50
40538;DHT22;27925;41.874;12.526;2024-01-10T07:11:10;9.30;87.50
40538;DHT22;27925;41.874;12.526;2024-01-10T07:13:40;9.40;87.70
40538;DHT22;27925;41.874;12.526;2024-01-10T07:16:06;9.50;87.50
40538;DHT22;27925;41.874;12.526;2024-01-10T07:18:32;9.50;87.30
40538;DHT22;27925;41.874;12.526;2024-01-10T07:20:58;9.50;87.10
40538;DHT22;27925;41.874;12.526;2024-01-10T07:23:23;9.50;87.10
40538;DHT22;27925;41.874;12.526;2024-01-10T07:25:49;9.50;87.60
40538;DHT22;27925;41.874;12.526;2024-01-10T07:28:16;9.50;87.30
40538;DHT22;27925;41.874;12.526;2024-01-10T07:30:41;9.50;87.40
40538;DHT22;27925;41.874;12.526;2024-01-10T07:33:07;9.50;87.20
40538;DHT22;27925;41.874;12.526;2024-01-10T07:35:33;9.50;87.10
40538;DHT22;27925;41.874;12.526;2024-01-10T07:37:59;9.50;86.90
40538;DHT22;27925;41.874;12.526;2024-01-10T07:40:25;9.50;87.10
40538;DHT22;27925;41.874;12.526;2024-01-10T07:42:50;9.50;87.10
40538;DHT22;27925;41.874;12.526;2024-01-10T07:45:16;9.50;86.90
40538;DHT22;27925;41.874;12.526;2024-01-10T07:47:42;9.50;87.10
40538;DHT22;27925;41.874;12.526;2024-01-10T07:50:09;9.50;86.90
40538;DHT22;27925;41.874;12.526;2024-01-10T07:52:35;9.60;87.10
40538;DHT22;27925;41.874;12.526;2024-01-10T07:55:01;9.60;86.60
40538;DHT22;27925;41.874;12.526;2024-01-10T07:57:30;9.60;86.80
40538;DHT22;27925;41.874;12.526;2024-01-10T07:59:56;9.70;87.20
40538;DHT22;27925;41.874;12.526;2024-01-10T08:02:22;9.70;86.90
40538;DHT22;27925;41.874;12.526;2024-01-10T08:04:48;9.80;87.20
40538;DHT22;27925;41.874;12.526;2024-01-10T08:07:13;9.80;86.80
40538;DHT22;27925;41.874;12.526;2024-01-10T08:09:39;9.90;86.60
40538;DHT22;27925;41.874;12.526;2024-01-10T08:12:05;10.00;85.40
40538;DHT22;27925;41.874;12.526;2024-01-10T08:14:32;10.00;85.00
40538;DHT22;27925;41.874;12.526;2024-01-10T08:16:58;10.10;85.40
40538;DHT22;27925;41.874;12.526;2024-01-10T08:19:29;10.10;84.80
40538;DHT22;27925;41.874;12.526;2024-01-10T08:21:55;10.10;85.00
40538;DHT22;27925;41.874;12.526;2024-01-10T08:24:22;10.20;84.90
40538;DHT22;27925;41.874;12.526;2024-01-10T08:26:48;10.20;84.50
40538;DHT22;27925;41.874;12.526;2024-01-10T08:29:18;10.30;84.50
40538;DHT22;27925;41.874;12.526;2024-01-10T08:31:45;10.30;84.50
40538;DHT22;27925;41.874;12.526;2024-01-10T08:34:10;10.30;84.30
40538;DHT22;27925;41.874;12.526;2024-01-10T08:36:36;10.30;84.30
40538;DHT22;27925;41.874;12.526;2024-01-10T08:39:03;10.30;84.10
40538;DHT22;27925;41.874;12.526;2024-01-10T08:41:29;10.30;84.30
40538;DHT22;27925;41.874;12.526;2024-01-10T08:43:55;10.40;84.00
40538;DHT22;27925;41.874;12.526;2024-01-10T08:46:22;10.50;84.00
40538;DHT22;27925;41.874;12.526;2024-01-10T08:48:48;10.40;83.30
40538;DHT22;27925;41.874;12.526;2024-01-10T08:51:14;10.50;83.60
40538;DHT22;27925;41.874;12.526;2024-01-10T08:53:44;10.50;83.40
40538;DHT22;27925;41.874;12.526;2024-01-10T08:56:10;10.50;83.30
40538;DHT22;27925;41.874;12.526;2024-01-10T08:58:36;10.50;83.00
40538;DHT22;27925;41.874;12.526;2024-01-10T09:01:03;10.60;83.40
40538;DHT22;27925;41.874;12.526;2024-01-10T09:03:30;10.60;83.40
40538;DHT22;27925;41.874;12.526;2024-01-10T09:05:55;10.60;83.80
40538;DHT22;27925;41.874;12.526;2024-01-10T09:08:22;10.60;83.80
40538;DHT22;27925;41.874;12.526;2024-01-10T09:10:47;10.70;83.80
40538;DHT22;27925;41.874;12.526;2024-01-10T09:13:15;10.70;83.80
40538;DHT22;27925;41.874;12.526;2024-01-10T09:15:41;10.80;84.00
40538;DHT22;27925;41.874;12.526;2024-01-10T09:18:06;10.90;83.40
40538;DHT22;27925;41.874;12.526;2024-01-10T09:20:32;10.90;83.00
40538;DHT22;27925;41.874;12.526;2024-01-10T09:22:58;11.00;82.60
40538;DHT22;27925;41.874;12.526;2024-01-10T09:25:26;11.10;82.20
40538;DHT22;27925;41.874;12.526;2024-01-10T09:27:51;11.20;82.10
40538;DHT22;27925;41.874;12.526;2024-01-10T09:30:17;11.30;82.00
40538;DHT22;27925;41.874;12.526;2024-01-10T09:32:44;11.30;81.30
40538;DHT22;27925;41.874;12.526;2024-01-10T09:35:10;11.40;81.20
40538;DHT22;27925;41.874;12.526;2024-01-10T09:37:36;11.50;80.70
40538;DHT22;27925;41.874;12.526;2024-01-10T09:40:01;11.60;80.40
40538;DHT22;27925;41.874;12.526;2024-01-10T09:42:28;11.60;80.10
40538;DHT22;27925;41.874;12.526;2024-01-10T09:44:57;11.60;79.90
40538;DHT22;27925;41.874;12.526;2024-01-10T09:47:23;11.70;79.60
40538;DHT22;27925;41.874;12.526;2024-01-10T09:49:49;11.70;78.50
40538;DHT22;27925;41.874;12.526;2024-01-10T09:52:26;11.80;78.70
40538;DHT22;27925;41.874;12.526;2024-01-10T09:54:57;11.90;78.40
40538;DHT22;27925;41.874;12.526;2024-01-10T09:57:25;12.00;78.10
40538;DHT22;27925;41.874;12.526;2024-01-10T09:59:52;12.10;77.90
40538;DHT22;27925;41.874;12.526;2024-01-10T10:02:19;12.30;77.30
40538;DHT22;27925;41.874;12.526;2024-01-10T10:05:09;12.30;77.50
40538;DHT22;27925;41.874;12.526;2024-01-10T10:07:50;12.30;77.90
40538;DHT22;27925;41.874;12.526;2024-01-10T10:10:17;12.40;76.50
40538;DHT22;27925;41.874;12.526;2024-01-10T10:12:48;12.50;76.50
40538;DHT22;27925;41.874;12.526;2024-01-10T10:15:18;12.60;76.00
40538;DHT22;27925;41.874;12.526;2024-01-10T10:17:45;12.70;76.80
40538;DHT22;27925;41.874;12.526;2024-01-10T10:20:21;12.80;75.80
40538;DHT22;27925;41.874;12.526;2024-01-10T10:23:05;12.80;75.90
40538;DHT22;27925;41.874;12.526;2024-01-10T10:25:35;12.80;75.40
40538;DHT22;27925;41.874;12.526;2024-01-10T10:28:02;12.70;76.00
40538;DHT22;27925;41.874;12.526;2024-01-10T10:30:29;12.70;74.40
40538;DHT22;27925;41.874;12.526;2024-01-10T10:32:55;12.60;73.40
40538;DHT22;27925;41.874;12.526;2024-01-10T10:35:21;12.50;72.80
40538;DHT22;27925;41.874;12.526;2024-01-10T10:37:52;12.60;72.90
40538;DHT22;27925;41.874;12.526;2024-01-10T10:40:19;12.50;72.70
40538;DHT22;27925;41.874;12.526;2024-01-10T10:42:54;12.60;72.70
40538;DHT22;27925;41.874;12.526;2024-01-10T10:45:20;12.60;72.70
40538;DHT22;27925;41.874;12.526;2024-01-10T10:47:55;12.60;72.10
40538;DHT22;27925;41.874;12.526;2024-01-10T10:50:24;12.50;71.40
40538;DHT22;27925;41.874;12.526;2024-01-10T10:52:51;12.50;71.10
40538;DHT22;27925;41.874;12.526;2024-01-10T10:55:18;12.60;71.10
40538;DHT22;27925;41.874;12.526;2024-01-10T10:57:46;12.70;71.10
40538;DHT22;27925;41.874;12.526;2024-01-10T11:00:18;12.80;71.10
40538;DHT22;27925;41.874;12.526;2024-01-10T11:02:44;13.00;71.00
40538;DHT22;27925;41.874;12.526;2024-01-10T11:05:11;13.10;70.50
40538;DHT22;27925;41.874;12.526;2024-01-10T11:07:41;13.30;70.60
40538;DHT22;27925;41.874;12.526;2024-01-10T11:10:33;13.30;70.50
40538;DHT22;27925;41.874;12.526;2024-01-10T11:24:14;13.30;71.60
40538;DHT22;27925;41.874;12.526;2024-01-10T11:26:40;13.30;71.90
40538;DHT22;27925;41.874;12.526;2024-01-10T11:29:05;13.30;71.70
40538;DHT22;27925;41.874;12.526;2024-01-10T11:31:32;13.20;71.60
40538;DHT22;27925;41.874;12.526;2024-01-10T11:33:59;13.20;71.70
40538;DHT22;27925;41.874;12.526;2024-01-10T11:36:25;13.20;71.80
40538;DHT22;27925;41.874;12.526;2024-01-10T11:46:47;13.20;72.30
40538;DHT22;27925;41.874;12.526;2024-01-10T11:49:15;13.20;72.70
40538;DHT22;27925;41.874;12.526;2024-01-10T11:51:45;13.20;72.60
40538;DHT22;27925;41.874;12.526;2024-01-10T11:54:11;13.10;72.70
40538;DHT22;27925;41.874;12.526;2024-01-10T11:56:41;13.10;73.20
40538;DHT22;27925;41.874;12.526;2024-01-10T11:59:09;13.10;73.40
40538;DHT22;27925;41.874;12.526;2024-01-10T12:01:37;13.10;73.80
40538;DHT22;27925;41.874;12.526;2024-01-10T12:04:04;13.10;73.90
40538;DHT22;27925;41.874;12.526;2024-01-10T12:06:31;13.20;74.10
40538;DHT22;27925;41.874;12.526;2024-01-10T12:08:57;13.20;74.20
40538;DHT22;27925;41.874;12.526;2024-01-10T12:11:23;13.20;74.40
40538;DHT22;27925;41.874;12.526;2024-01-10T12:13:49;13.20;74.60
40538;DHT22;27925;41.874;12.526;2024-01-10T12:16:15;13.10;74.70
40538;DHT22;27925;41.874;12.526;2024-01-10T12:18:44;13.20;75.00
40538;DHT22;27925;41.874;12.526;2024-01-10T12:21:10;13.10;75.30
40538;DHT22;27925;41.874;12.526;2024-01-10T12:23:37;13.00;75.70
40538;DHT22;27925;41.874;12.526;2024-01-10T12:26:07;12.90;75.50
40538;DHT22;27925;41.874;12.526;2024-01-10T12:28:37;12.90;75.60
40538;DHT22;27925;41.874;12.526;2024-01-10T12:31:03;12.90;76.70
40538;DHT22;27925;41.874;12.526;2024-01-10T12:33:31;12.80;76.30
40538;DHT22;27925;41.874;12.526;2024-01-10T12:36:08;12.80;76.30
40538;DHT22;27925;41.874;12.526;2024-01-10T12:38:35;12.80;76.20
40538;DHT22;27925;41.874;12.526;2024-01-10T12:41:01;12.90;76.10
40538;DHT22;27925;41.874;12.526;2024-01-10T12:43:27;12.90;76.30
40538;DHT22;27925;41.874;12.526;2024-01-10T12:46:03;12.80;76.50
40538;DHT22;27925;41.874;12.526;2024-01-10T12:48:30;12.70;76.50
40538;DHT22;27925;41.874;12.526;2024-01-10T12:50:56;12.70;76.80
40538;DHT22;27925;41.874;12.526;2024-01-10T12:53:22;12.60;76.90
40538;DHT22;27925;41.874;12.526;2024-01-10T12:55:48;12.60;77.00
40538;DHT22;27925;41.874;12.526;2024-01-10T12:58:14;12.60;77.00
40538;DHT22;27925;41.874;12.526;2024-01-10T13:00:39;12.60;77.00
40538;DHT22;27925;41.874;12.526;2024-01-10T13:03:05;12.60;77.00
40538;DHT22;27925;41.874;12.526;2024-01-10T13:05:31;12.70;76.80
40538;DHT22;27925;41.874;12.526;2024-01-10T13:07:57;12.60;76.70
40538;DHT22;27925;41.874;12.526;2024-01-10T13:10:23;12.70;76.70
40538;DHT22;27925;41.874;12.526;2024-01-10T22:49:57;9.30;87.00
40538;DHT22;27925;41.874;12.526;2024-01-10T22:52:23;9.20;86.30
40538;DHT22;27925;41.874;12.526;2024-01-10T22:54:48;9.30;86.40
40538;DHT22;27925;41.874;12.526;2024-01-10T22:57:14;9.30;86.40
40538;DHT22;27925;41.874;12.526;2024-01-10T22:59:40;9.30;86.30
40538;DHT22;27925;41.874;12.526;2024-01-10T23:02:05;9.30;86.30
40538;DHT22;27925;41.874;12.526;2024-01-10T23:04:31;9.30;86.10
40538;DHT22;27925;41.874;12.526;2024-01-10T23:06:57;9.30;86.10
40538;DHT22;27925;41.874;12.526;2024-01-10T23:09:23;9.30;86.20
40538;DHT22;27925;41.874;12.526;2024-01-10T23:11:49;9.20;86.20
40538;DHT22;27925;41.874;12.526;2024-01-10T23:14:14;9.20;86.40
40538;DHT22;27925;41.874;12.526;2024-01-10T23:16:41;9.10;86.50
40538;DHT22;27925;41.874;12.526;2024-01-10T23:19:07;9.10;86.50
40538;DHT22;27925;41.874;12.526;2024-01-10T23:21:33;9.10;86.90
40538;DHT22;27925;41.874;12.526;2024-01-10T23:24:00;9.10;86.80
40538;DHT22;27925;41.874;12.526;2024-01-10T23:26:26;9.10;86.70
40538;DHT22;27925;41.874;12.526;2024-01-10T23:28:51;9.10;86.90
40538;DHT22;27925;41.874;12.526;2024-01-10T23:31:17;9.10;86.80
40538;DHT22;27925;41.874;12.526;2024-01-10T23:33:44;9.00;86.80
40538;DHT22;27925;41.874;12.526;2024-01-10T23:36:10;9.00;86.90
40538;DHT22;27925;41.874;12.526;2024-01-10T23:38:37;9.00;86.80
40538;DHT22;27925;41.874;12.526;2024-01-10T23:41:03;8.90;86.80
40538;DHT22;27925;41.874;12.526;2024-01-10T23:43:29;8.90;87.20
40538;DHT22;27925;41.874;12.526;2024-01-10T23:45:55;8.90;87.00
40538;DHT22;27925;41.874;12.526;2024-01-10T23:48:21;8.90;87.20
40538;DHT22;27925;41.874;12.526;2024-01-10T23:50:47;8.90;87.00
40538;DHT22;27925;41.874;12.526;2024-01-10T23:53:12;8.90;87.30
40538;DHT22;27925;41.874;12.526;2024-01-10T23:55:38;9.00;87.20
40538;DHT22;27925;41.874;12.526;2024-01-10T23:58:04;9.00;86.90
